createdAt,value
2023-01-06T00:00:44.835Z,14.43
2023-01-06T00:02:47.580Z,12.57
2023-01-06T00:04:49.612Z,25.50
2023-01-06T00:06:51.558Z,10.25
2023-01-06T00:08:54.654Z,18.17
2023-01-06T00:10:56.577Z,17.60
2023-01-06T00:12:58.347Z,10.82
2023-01-06T00:15:00.051Z,9.57
2023-01-06T00:17:01.909Z,13.18
2023-01-06T00:19:03.856Z,14.85
2023-01-06T00:21:06.849Z,12.93
2023-01-06T00:23:08.734Z,12.35
2023-01-06T00:25:11.122Z,9.02
2023-01-06T00:27:12.835Z,7.07
2023-01-06T00:29:14.513Z,9.60
2023-01-06T00:31:17.308Z,14.27
2023-01-06T00:33:19.050Z,8.35
2023-01-06T00:35:20.868Z,11.20
2023-01-06T00:37:22.803Z,17.38
2023-01-06T00:39:24.497Z,8.40
2023-01-06T00:41:26.441Z,9.32
2023-01-06T00:43:28.240Z,7.85
2023-01-06T00:45:29.935Z,8.43
2023-01-06T00:47:31.669Z,7.90
2023-01-06T00:49:33.848Z,7.72
2023-01-06T00:51:37.910Z,8.45
2023-01-06T00:53:39.892Z,7.25
2023-01-06T00:55:41.703Z,9.38
2023-01-06T00:57:43.411Z,8.05
2023-01-06T00:59:45.145Z,9.40
2023-01-06T01:01:48.653Z,11.45
2023-01-06T01:05:52.098Z,8.35
2023-01-06T01:07:54.078Z,11.82
2023-01-06T01:09:55.786Z,8.50
2023-01-06T01:11:58.317Z,8.30
2023-01-06T01:14:00.594Z,8.68
2023-01-06T01:16:07.052Z,9.95
2023-01-06T01:18:09.068Z,7.88
2023-01-06T01:20:11.185Z,8.30
2023-01-06T01:22:12.915Z,9.50
2023-01-06T01:24:15.101Z,7.65
2023-01-06T01:26:16.826Z,7.38
2023-01-06T01:28:18.506Z,9.70
2023-01-06T01:30:20.369Z,10.93
2023-01-06T01:32:22.411Z,9.50
2023-01-06T01:34:24.745Z,8.13
2023-01-06T01:36:26.864Z,10.10
2023-01-06T01:38:28.720Z,10.52
2023-01-06T01:40:30.411Z,10.02
2023-01-06T01:42:32.259Z,16.08
2023-01-06T01:45:00.031Z,14.07
2023-01-06T01:47:02.007Z,8.68
2023-01-06T01:49:17.021Z,7.28
2023-01-06T01:51:25.186Z,9.25
2023-01-06T01:53:34.433Z,10.02
2023-01-06T01:55:38.234Z,10.13
2023-01-06T01:57:47.065Z,8.73
2023-01-06T01:59:48.944Z,10.93
2023-01-06T02:01:51.487Z,8.82
2023-01-06T02:03:53.650Z,11.60
2023-01-06T02:06:04.683Z,9.70
2023-01-06T02:08:30.613Z,12.52
2023-01-06T02:10:32.559Z,7.78
2023-01-06T02:12:35.789Z,8.27
2023-01-06T02:14:37.465Z,9.00
2023-01-06T02:17:14.379Z,6.07
2023-01-06T02:19:21.762Z,7.07
2023-01-06T02:21:53.151Z,7.78
2023-01-06T02:24:20.875Z,8.30
2023-01-06T02:26:25.213Z,6.28
2023-01-06T02:29:17.896Z,6.35
2023-01-06T02:31:50.379Z,6.88
2023-01-06T02:34:13.359Z,7.45
2023-01-06T02:36:24.041Z,5.25
2023-01-06T02:38:34.500Z,6.80
2023-01-06T02:40:58.568Z,7.65
2023-01-06T02:43:22.649Z,7.70
2023-01-06T02:45:42.216Z,7.90
2023-01-06T02:47:56.127Z,5.82
2023-01-06T02:50:00.570Z,9.32
2023-01-06T02:52:25.060Z,8.35
2023-01-06T02:54:58.604Z,7.85
2023-01-06T02:57:16.426Z,6.90
2023-01-06T02:59:27.086Z,6.97
2023-01-06T03:01:34.585Z,7.35
2023-01-06T03:03:39.867Z,7.38
2023-01-06T03:05:45.377Z,6.57
2023-01-06T03:07:48.491Z,6.85
2023-01-06T03:09:53.217Z,8.60
2023-01-06T03:11:54.982Z,16.40
2023-01-06T03:14:04.058Z,20.95
2023-01-06T03:16:06.905Z,92.57
2023-01-06T03:18:08.969Z,93.63
2023-01-06T03:20:15.408Z,25.20
2023-01-06T03:22:18.180Z,14.15
2023-01-06T03:24:20.208Z,34.00
2023-01-06T03:26:24.142Z,25.73
2023-01-06T03:28:25.914Z,25.77
2023-01-06T03:30:32.603Z,19.60
2023-01-06T03:32:34.365Z,17.33
2023-01-06T03:34:57.015Z,9.10
2023-01-06T03:37:07.541Z,8.63
2023-01-06T03:39:18.322Z,9.43
2023-01-06T03:41:29.292Z,10.85
2023-01-06T03:43:44.389Z,7.95
2023-01-06T03:45:55.119Z,7.72
2023-01-06T03:48:09.684Z,25.40
2023-01-06T03:50:23.333Z,11.23
2023-01-06T03:52:31.936Z,15.30
2023-01-06T03:55:03.318Z,17.55
2023-01-06T03:57:15.867Z,7.13
2023-01-06T03:59:21.403Z,10.52
2023-01-06T04:01:24.467Z,47.20
2023-01-06T04:03:26.577Z,8.68
2023-01-06T04:05:29.214Z,6.65
2023-01-06T04:07:31.066Z,14.68
2023-01-06T04:09:32.793Z,31.95
2023-01-06T04:11:35.065Z,15.80
2023-01-06T04:13:36.911Z,28.63
2023-01-06T04:15:38.591Z,41.00
2023-01-06T04:17:41.493Z,40.85
2023-01-06T04:19:43.345Z,29.05
2023-01-06T04:21:45.058Z,29.25
2023-01-06T04:23:46.879Z,29.90
2023-01-06T04:25:48.763Z,15.07
2023-01-06T04:27:50.628Z,13.82
2023-01-06T04:29:52.344Z,12.18
2023-01-06T04:31:54.032Z,7.60
2023-01-06T04:33:55.784Z,9.40
2023-01-06T04:35:57.655Z,7.18
2023-01-06T04:38:02.402Z,9.60
2023-01-06T04:40:04.580Z,27.27
2023-01-06T04:42:06.531Z,12.73
2023-01-06T04:44:08.302Z,8.90
2023-01-06T04:46:10.139Z,5.60
2023-01-06T04:48:12.568Z,8.93
2023-01-06T04:50:14.621Z,18.75
2023-01-06T04:52:16.465Z,17.23
2023-01-06T04:54:24.263Z,16.15
2023-01-06T04:56:26.975Z,14.77
2023-01-06T04:58:28.749Z,20.97
2023-01-06T05:00:30.649Z,16.92
2023-01-06T05:02:32.421Z,22.70
2023-01-06T05:04:43.346Z,24.65
2023-01-06T05:06:49.068Z,8.30
2023-01-06T05:08:51.126Z,9.15
2023-01-06T05:11:00.219Z,15.90
2023-01-06T05:13:02.081Z,39.17
2023-01-06T05:15:04.330Z,14.65
2023-01-06T05:17:06.024Z,13.55
2023-01-06T05:19:07.779Z,10.80
2023-01-06T05:21:09.727Z,8.65
2023-01-06T05:23:11.427Z,7.88
2023-01-06T05:25:13.356Z,14.20
2023-01-06T05:27:15.250Z,8.38
2023-01-06T05:29:17.099Z,9.20
2023-01-06T05:31:18.979Z,8.68
2023-01-06T05:33:20.903Z,11.73
2023-01-06T05:35:22.570Z,8.15
2023-01-06T05:37:24.279Z,10.45
2023-01-06T05:39:26.152Z,17.35
2023-01-06T05:41:27.885Z,8.60
2023-01-06T05:43:30.289Z,7.75
2023-01-06T05:45:32.249Z,9.00
2023-01-06T05:47:34.001Z,7.95
2023-01-06T05:49:35.954Z,8.93
2023-01-06T05:51:37.621Z,6.97
2023-01-06T05:53:41.928Z,9.75
2023-01-06T05:55:44.073Z,6.70
2023-01-06T05:57:45.931Z,8.65
2023-01-06T05:59:47.957Z,5.40
2023-01-06T06:01:49.787Z,14.63
2023-01-06T06:03:53.426Z,7.38
2023-01-06T06:07:56.963Z,7.70
2023-01-06T06:09:58.919Z,6.90
2023-01-06T06:12:00.592Z,5.35
2023-01-06T06:14:02.325Z,9.10
2023-01-06T06:16:09.227Z,6.18
2023-01-06T06:18:10.964Z,7.50
2023-01-06T06:20:12.784Z,13.27
2023-01-06T06:22:14.465Z,25.67
2023-01-06T06:24:16.190Z,22.15
2023-01-06T06:26:17.888Z,10.05
2023-01-06T06:28:19.574Z,10.95
2023-01-06T06:30:21.272Z,9.40
2023-01-06T06:32:23.129Z,5.25
2023-01-06T06:34:24.896Z,6.35
2023-01-06T06:36:27.464Z,8.90
2023-01-06T06:38:29.812Z,16.50
2023-01-06T06:40:31.551Z,8.45
2023-01-06T06:42:33.329Z,9.57
2023-01-06T06:44:35.086Z,10.40
2023-01-06T06:46:36.850Z,11.18
2023-01-06T06:48:38.803Z,7.30
2023-01-06T06:50:40.707Z,5.90
2023-01-06T06:52:42.515Z,5.95
2023-01-06T06:54:44.232Z,5.30
2023-01-06T06:56:45.955Z,12.43
2023-01-06T06:58:48.486Z,5.55
2023-01-06T07:00:50.212Z,12.10
2023-01-06T07:02:52.239Z,10.43
2023-01-06T07:04:54.067Z,11.50
2023-01-06T07:06:57.008Z,10.77
2023-01-06T07:08:58.762Z,8.60
2023-01-06T07:11:00.908Z,8.40
2023-01-06T07:13:04.348Z,6.05
2023-01-06T07:15:07.499Z,7.68
2023-01-06T07:17:09.232Z,9.32
2023-01-06T07:19:10.941Z,22.75
2023-01-06T07:21:12.737Z,14.88
2023-01-06T07:23:14.835Z,11.63
2023-01-06T07:25:16.526Z,14.63
2023-01-06T07:27:18.413Z,14.93
2023-01-06T07:29:20.190Z,23.85
2023-01-06T07:31:21.885Z,8.57
2023-01-06T07:33:24.013Z,38.83
2023-01-06T07:35:25.852Z,62.42
2023-01-06T07:37:27.569Z,101.97
2023-01-06T07:39:29.331Z,132.20
2023-01-06T07:41:32.266Z,124.70
2023-01-06T07:43:33.929Z,73.22
2023-01-06T07:45:36.217Z,57.10
2023-01-06T07:47:38.120Z,48.45
2023-01-06T07:49:39.791Z,39.13
2023-01-06T07:51:41.550Z,20.45
2023-01-06T07:53:43.614Z,12.95
2023-01-06T07:55:54.573Z,8.18
2023-01-06T07:57:56.639Z,6.90
2023-01-06T07:59:58.527Z,5.22
2023-01-06T08:02:00.344Z,5.38
2023-01-06T08:04:02.445Z,5.43
2023-01-06T08:06:11.532Z,6.28
2023-01-06T08:08:13.230Z,32.25
2023-01-06T08:10:15.088Z,9.15
2023-01-06T08:12:17.468Z,7.30
2023-01-06T08:14:19.154Z,6.20
2023-01-06T08:16:20.978Z,227.07
2023-01-06T08:18:22.901Z,15.57
2023-01-06T08:20:24.655Z,15.25
2023-01-06T08:22:26.501Z,8.52
2023-01-06T08:24:28.484Z,117.28
2023-01-06T08:26:30.170Z,28.33
2023-01-06T08:28:32.241Z,43.72
2023-01-06T08:30:33.987Z,22.75
2023-01-06T08:32:35.664Z,267.38
2023-01-06T08:34:37.488Z,73.38
2023-01-06T08:36:39.861Z,25.55
2023-01-06T08:38:41.844Z,11.55
2023-01-06T08:40:44.000Z,15.32
2023-01-06T08:42:45.678Z,30.77
2023-01-06T08:44:47.748Z,12.15
2023-01-06T08:46:49.768Z,58.83
2023-01-06T08:48:51.577Z,25.20
2023-01-06T08:50:53.387Z,22.40
2023-01-06T08:52:55.145Z,12.20
2023-01-06T08:54:56.965Z,8.30
2023-01-06T08:56:58.656Z,8.90
2023-01-06T08:59:02.507Z,136.95
2023-01-06T09:01:04.388Z,35.25
2023-01-06T09:03:06.180Z,94.38
2023-01-06T09:05:08.391Z,10.95
2023-01-06T09:07:10.234Z,17.50
2023-01-06T09:09:13.043Z,16.88
2023-01-06T09:11:16.121Z,112.07
2023-01-06T09:13:18.304Z,9.90
2023-01-06T09:15:20.001Z,6.93
2023-01-06T09:17:23.362Z,53.35
2023-01-06T09:19:25.139Z,76.97
2023-01-06T09:21:26.886Z,22.08
2023-01-06T09:23:28.842Z,33.70
2023-01-06T09:25:30.553Z,14.50
2023-01-06T09:27:32.275Z,48.03
2023-01-06T09:29:34.030Z,17.05
2023-01-06T09:31:35.983Z,17.20
2023-01-06T09:33:37.878Z,23.85
2023-01-06T09:35:39.747Z,13.02
2023-01-06T09:37:41.568Z,10.23
2023-01-06T09:39:43.291Z,8.25
2023-01-06T09:42:03.915Z,8.50
2023-01-06T09:44:33.802Z,26.65
2023-01-06T09:46:38.935Z,23.50
2023-01-06T09:48:54.061Z,10.05
2023-01-06T09:51:03.852Z,8.00
2023-01-06T09:53:28.960Z,12.80
2023-01-06T09:55:33.561Z,17.25
2023-01-06T09:58:06.834Z,12.55
2023-01-06T10:00:15.951Z,10.43
2023-01-06T10:02:24.524Z,17.27
2023-01-06T10:04:28.935Z,21.90
2023-01-06T10:06:51.169Z,11.30
2023-01-06T10:09:05.603Z,13.65
2023-01-06T10:11:35.194Z,10.85
2023-01-06T10:14:01.113Z,15.27
2023-01-06T10:16:10.264Z,10.63
2023-01-06T10:18:24.010Z,9.85
2023-01-06T10:20:34.355Z,9.93
2023-01-06T10:23:17.752Z,10.40
2023-01-06T10:25:22.698Z,9.77
2023-01-06T10:27:53.863Z,8.10
2023-01-06T10:29:56.547Z,6.50
2023-01-06T10:32:02.838Z,9.60
2023-01-06T10:34:34.429Z,6.90
2023-01-06T10:36:45.342Z,7.50
2023-01-06T10:38:51.098Z,8.43
2023-01-06T10:40:55.762Z,11.05
2023-01-06T10:43:04.384Z,14.27
2023-01-06T10:45:11.935Z,13.15
2023-01-06T10:47:23.061Z,11.75
2023-01-06T10:49:24.937Z,13.00
2023-01-06T10:51:38.836Z,10.75
2023-01-06T10:53:40.695Z,10.00
2023-01-06T10:55:56.036Z,12.50
2023-01-06T10:58:05.471Z,19.35
2023-01-06T11:00:18.084Z,21.75
2023-01-06T11:02:23.323Z,15.13
2023-01-06T11:04:27.241Z,16.67
2023-01-06T11:06:30.313Z,8.85
2023-01-06T11:08:32.839Z,10.27
2023-01-06T11:10:38.559Z,9.35
2023-01-06T11:12:46.058Z,10.30
2023-01-06T11:15:19.860Z,10.82
2023-01-06T11:17:23.580Z,12.57
2023-01-06T11:19:35.063Z,14.70
2023-01-06T11:21:46.672Z,8.27
2023-01-06T11:23:49.091Z,12.02
2023-01-06T11:26:01.334Z,22.63
2023-01-06T11:28:13.397Z,14.38
2023-01-06T11:30:29.054Z,12.88
2023-01-06T11:32:30.847Z,14.68
2023-01-06T11:34:33.457Z,11.55
2023-01-06T11:36:35.345Z,18.85
2023-01-06T11:39:08.185Z,14.13
2023-01-06T11:41:11.545Z,10.88
2023-01-06T11:43:15.988Z,26.25
2023-01-06T11:45:54.865Z,26.25
2023-01-06T11:47:57.311Z,21.05
2023-01-06T11:50:01.447Z,27.65
2023-01-06T11:52:19.626Z,18.10
2023-01-06T11:54:28.889Z,20.90
2023-01-06T11:56:30.740Z,21.98
2023-01-06T11:58:44.433Z,13.25
2023-01-06T12:01:12.105Z,13.00
2023-01-06T12:03:19.978Z,17.52
2023-01-06T12:05:32.410Z,44.95
2023-01-06T12:07:56.493Z,14.65
2023-01-06T12:10:09.533Z,11.55
2023-01-06T12:12:15.153Z,16.48
2023-01-06T12:14:46.094Z,21.90
2023-01-06T12:17:06.569Z,49.05
2023-01-06T12:19:18.335Z,33.08
2023-01-06T12:21:30.478Z,45.92
2023-01-06T12:23:40.235Z,32.90
2023-01-06T12:25:45.432Z,25.38
2023-01-06T12:28:06.127Z,37.53
2023-01-06T12:30:19.778Z,67.97
2023-01-06T12:32:25.266Z,180.73
2023-01-06T12:34:33.698Z,63.95
2023-01-06T12:36:41.207Z,170.77
2023-01-06T12:38:57.423Z,54.30
2023-01-06T12:41:07.418Z,61.40
2023-01-06T12:43:17.410Z,54.53
2023-01-06T12:45:57.098Z,264.35
2023-01-06T12:48:03.737Z,55.88
2023-01-06T12:50:20.994Z,155.68
2023-01-06T12:52:30.692Z,67.22
2023-01-06T12:54:34.727Z,83.30
2023-01-06T12:56:59.467Z,62.33
2023-01-06T12:59:22.791Z,66.60
2023-01-06T13:01:36.555Z,53.92
2023-01-06T13:03:44.045Z,36.53
2023-01-06T13:06:11.635Z,50.78
2023-01-06T13:08:27.218Z,50.53
2023-01-06T13:10:35.492Z,31.48
2023-01-06T13:13:04.199Z,28.15
2023-01-06T13:15:27.301Z,31.70
2023-01-06T13:17:39.533Z,29.75
2023-01-06T13:19:59.060Z,32.90
2023-01-06T13:22:02.934Z,41.28
2023-01-06T13:24:23.514Z,50.75
2023-01-06T13:26:40.020Z,62.13
2023-01-06T13:29:13.818Z,49.22
2023-01-06T13:31:28.584Z,42.75
2023-01-06T13:33:55.262Z,30.30
2023-01-06T13:36:18.621Z,31.08
2023-01-06T13:38:35.301Z,37.83
2023-01-06T13:40:39.641Z,39.00
2023-01-06T13:42:43.909Z,38.90
2023-01-06T13:44:48.886Z,32.83
2023-01-06T13:46:54.112Z,29.55
2023-01-06T13:49:00.692Z,21.20
2023-01-06T13:51:05.521Z,21.25
2023-01-06T13:53:13.494Z,24.60
2023-01-06T13:55:32.659Z,26.08
2023-01-06T13:57:37.672Z,21.92
2023-01-06T14:00:11.248Z,28.30
2023-01-06T14:02:34.808Z,24.80
2023-01-06T14:04:36.574Z,20.33
2023-01-06T14:06:39.935Z,20.20
2023-01-06T14:08:50.380Z,20.63
2023-01-06T14:10:58.852Z,19.33
2023-01-06T14:13:03.969Z,21.00
2023-01-06T14:15:21.777Z,22.55
2023-01-06T14:17:37.872Z,23.42
2023-01-06T14:19:40.477Z,16.85
2023-01-06T14:21:42.992Z,21.52
2023-01-06T14:23:54.539Z,23.75
2023-01-06T14:25:57.623Z,27.13
2023-01-06T14:27:59.303Z,154.20
2023-01-06T14:30:03.180Z,109.70
2023-01-06T14:32:08.676Z,198.88
2023-01-06T14:34:12.983Z,160.60
2023-01-06T14:36:17.234Z,233.23
2023-01-06T14:38:36.827Z,121.13
2023-01-06T14:40:53.472Z,61.85
2023-01-06T14:43:01.745Z,55.22
2023-01-06T14:45:17.954Z,29.60
2023-01-06T14:47:40.439Z,57.70
2023-01-06T14:49:47.028Z,397.63
2023-01-06T14:51:52.962Z,267.42
2023-01-06T14:54:29.262Z,88.72
2023-01-06T14:56:33.363Z,67.47
2023-01-06T14:58:36.630Z,37.53
2023-01-06T15:00:45.199Z,41.13
2023-01-06T15:02:50.464Z,133.95
2023-01-06T15:04:56.303Z,40.05
2023-01-06T15:06:59.175Z,32.47
2023-01-06T15:09:19.709Z,61.72
2023-01-06T15:11:32.233Z,66.18
2023-01-06T15:13:34.449Z,51.22
2023-01-06T15:15:36.457Z,52.47
2023-01-06T15:17:38.272Z,66.45
2023-01-06T15:19:43.942Z,43.25
2023-01-06T15:21:47.779Z,49.30
2023-01-06T15:23:52.024Z,50.92
2023-01-06T15:25:55.743Z,32.53
2023-01-06T15:27:57.715Z,78.43
2023-01-06T15:29:59.439Z,46.78
2023-01-06T15:32:02.305Z,41.08
2023-01-06T15:34:11.647Z,39.38
2023-01-06T15:36:22.083Z,57.15
2023-01-06T15:38:31.110Z,47.92
2023-01-06T15:40:33.192Z,43.35
2023-01-06T15:42:35.305Z,34.67
2023-01-06T15:44:38.617Z,54.97
2023-01-06T15:46:42.051Z,59.97
2023-01-06T15:48:46.145Z,53.78
2023-01-06T15:54:27.871Z,53.08
2023-01-06T15:56:31.470Z,53.55
2023-01-06T16:00:44.361Z,53.47
2023-01-06T16:02:48.262Z,60.92
2023-01-06T16:04:50.013Z,48.03
2023-01-06T16:06:51.748Z,59.92
2023-01-06T16:08:53.566Z,43.97
2023-01-06T16:11:22.731Z,49.22
2023-01-06T16:13:28.848Z,50.78
2023-01-06T16:15:35.095Z,46.53
2023-01-06T16:17:46.084Z,41.70
2023-01-06T16:19:53.922Z,63.55
2023-01-06T16:21:56.595Z,54.08
2023-01-06T16:24:00.967Z,66.00
2023-01-06T16:26:10.695Z,64.50
2023-01-06T16:28:21.007Z,49.70
2023-01-06T16:30:27.883Z,48.83
2023-01-06T16:32:38.604Z,44.28
2023-01-06T16:34:49.723Z,50.60
2023-01-06T16:36:55.047Z,62.33
2023-01-06T16:38:56.734Z,66.53
2023-01-06T16:40:58.434Z,48.42
2023-01-06T16:43:02.261Z,59.78
2023-01-06T16:45:09.011Z,68.40
2023-01-06T16:47:10.670Z,85.72
2023-01-06T16:49:12.860Z,127.95
2023-01-06T16:51:18.675Z,93.93
2023-01-06T16:53:22.650Z,73.10
2023-01-06T16:57:26.281Z,75.30
2023-01-06T16:59:33.886Z,80.90
2023-01-06T17:01:35.824Z,80.00
2023-01-06T17:03:38.663Z,65.32
2023-01-06T17:05:40.377Z,71.77
2023-01-06T17:07:42.212Z,72.60
2023-01-06T17:09:43.996Z,71.10
2023-01-06T17:11:45.899Z,58.05
2023-01-06T17:14:03.154Z,55.65
2023-01-06T17:16:11.170Z,61.97
2023-01-06T17:18:20.958Z,67.30
2023-01-06T17:20:22.822Z,51.25
2023-01-06T17:22:30.070Z,51.72
2023-01-06T17:24:31.838Z,45.47
2023-01-06T17:26:34.214Z,51.65
2023-01-06T17:28:36.804Z,44.22
2023-01-06T17:30:39.110Z,57.22
2023-01-06T17:32:43.503Z,58.17
2023-01-06T17:34:45.276Z,64.55
2023-01-06T17:36:49.618Z,77.32
2023-01-06T17:38:52.271Z,116.68
2023-01-06T17:40:54.031Z,65.93
2023-01-06T17:43:20.149Z,118.25
2023-01-06T17:45:26.752Z,300.45
2023-01-06T17:47:35.370Z,208.68
2023-01-06T17:49:37.100Z,253.35
2023-01-06T17:51:40.184Z,108.00
2023-01-06T17:53:42.159Z,167.70
2023-01-06T17:55:48.805Z,225.27
2023-01-06T17:57:51.274Z,99.75
2023-01-06T17:59:56.684Z,202.25
2023-01-06T18:01:58.416Z,188.13
2023-01-06T18:04:00.645Z,69.43
2023-01-06T18:06:23.525Z,74.18
2023-01-06T18:08:26.999Z,178.50
2023-01-06T18:10:28.713Z,104.72
2023-01-06T18:12:30.561Z,58.50
2023-01-06T18:14:36.565Z,96.97
2023-01-06T18:16:38.798Z,52.00
2023-01-06T18:18:42.650Z,69.60
2023-01-06T18:21:26.213Z,100.28
2023-01-06T18:23:28.034Z,134.68
2023-01-06T18:25:29.826Z,58.80
2023-01-06T18:27:34.709Z,130.57
2023-01-06T18:29:38.851Z,95.30
2023-01-06T18:31:41.350Z,249.90
2023-01-06T18:33:43.265Z,98.07
2023-01-06T18:35:44.951Z,130.88
2023-01-06T18:37:47.079Z,81.93
2023-01-06T18:39:52.224Z,62.47
2023-01-06T18:42:34.550Z,71.90
2023-01-06T18:44:36.835Z,70.97
2023-01-06T18:46:41.545Z,68.75
2023-01-06T18:48:44.662Z,67.97
2023-01-06T18:50:49.522Z,70.68
2023-01-06T18:52:53.374Z,86.53
2023-01-06T18:54:55.358Z,95.00
2023-01-06T18:56:57.079Z,75.68
2023-01-06T18:58:59.450Z,65.28
2023-01-06T19:01:11.348Z,79.43
2023-01-06T19:03:39.173Z,72.45
2023-01-06T19:05:42.013Z,105.65
2023-01-06T19:07:43.825Z,97.07
2023-01-06T19:09:49.980Z,113.10
2023-01-06T19:12:19.333Z,110.18
2023-01-06T19:14:21.039Z,103.00
2023-01-06T19:16:30.477Z,70.25
2023-01-06T19:18:34.085Z,83.57
2023-01-06T19:25:23.704Z,105.10
2023-01-06T19:27:33.486Z,82.70
2023-01-06T19:29:35.208Z,83.03
2023-01-06T19:31:37.120Z,102.55
2023-01-06T19:33:43.938Z,83.05
2023-01-06T19:35:46.429Z,85.75
2023-01-06T19:37:49.186Z,99.70
2023-01-06T19:39:57.229Z,109.80
2023-01-06T19:42:23.712Z,98.13
2023-01-06T19:44:34.070Z,84.13
2023-01-06T19:46:38.426Z,90.50
2023-01-06T19:48:41.491Z,86.50
2023-01-06T19:50:43.162Z,77.38
2023-01-06T19:52:45.114Z,89.22
2023-01-06T19:54:46.799Z,84.53
2023-01-06T19:56:50.055Z,83.45
2023-01-06T19:59:01.420Z,78.10
2023-01-06T20:01:03.410Z,70.38
2023-01-06T20:03:31.362Z,67.38
2023-01-06T20:05:33.134Z,74.88
2023-01-06T20:07:34.826Z,73.88
2023-01-06T20:09:36.651Z,67.82
2023-01-06T20:11:38.464Z,64.78
2023-01-06T20:13:40.291Z,57.42
2023-01-06T20:15:43.719Z,56.83
2023-01-06T20:17:45.405Z,70.05
2023-01-06T20:19:47.130Z,77.28
2023-01-06T20:21:48.903Z,85.72
2023-01-06T20:23:50.587Z,74.18
2023-01-06T20:25:52.745Z,64.57
2023-01-06T20:27:54.517Z,59.35
2023-01-06T20:29:56.191Z,122.18
2023-01-06T20:31:58.059Z,65.97
2023-01-06T20:34:00.196Z,87.45
2023-01-06T20:36:01.982Z,99.05
2023-01-06T20:38:04.044Z,86.38
2023-01-06T20:40:06.815Z,74.35
2023-01-06T20:42:08.906Z,79.83
2023-01-06T20:44:10.726Z,84.40
2023-01-06T20:46:12.586Z,76.20
2023-01-06T20:48:14.351Z,85.25
2023-01-06T20:50:16.280Z,60.83
2023-01-06T20:52:18.340Z,93.05
2023-01-06T20:54:20.036Z,76.88
2023-01-06T20:56:22.055Z,74.15
2023-01-06T20:58:24.240Z,86.47
2023-01-06T21:00:26.115Z,68.72
2023-01-06T21:02:28.546Z,60.30
2023-01-06T21:04:30.378Z,72.85
2023-01-06T21:06:32.067Z,109.05
2023-01-06T21:08:33.821Z,88.72
2023-01-06T21:10:35.699Z,68.82
2023-01-06T21:12:37.452Z,65.88
2023-01-06T21:14:39.252Z,71.88
2023-01-06T21:16:41.050Z,83.97
2023-01-06T21:18:42.777Z,86.70
2023-01-06T21:20:44.473Z,76.20
2023-01-06T21:22:46.304Z,103.55
2023-01-06T21:24:48.087Z,117.43
2023-01-06T21:26:49.967Z,112.50
2023-01-06T21:28:51.752Z,116.03
2023-01-06T21:30:53.527Z,117.95
2023-01-06T21:32:55.419Z,106.78
2023-01-06T21:34:57.292Z,96.82
2023-01-06T21:36:59.020Z,98.65
2023-01-06T21:39:01.173Z,95.60
2023-01-06T21:41:03.178Z,94.63
2023-01-06T21:43:04.970Z,98.78
2023-01-06T21:45:07.645Z,87.90
2023-01-06T21:47:09.895Z,95.78
2023-01-06T21:49:11.624Z,89.72
2023-01-06T21:51:13.556Z,95.47
2023-01-06T21:53:15.523Z,116.78
2023-01-06T21:55:17.405Z,97.72
2023-01-06T21:57:19.236Z,87.15
2023-01-06T21:59:21.177Z,76.18
2023-01-06T22:01:23.123Z,78.38
2023-01-06T22:03:26.245Z,123.10
2023-01-06T22:05:28.768Z,121.40
2023-01-06T22:07:31.018Z,121.00
2023-01-06T22:09:32.935Z,108.82
2023-01-06T22:11:36.909Z,123.57
2023-01-06T22:13:40.717Z,216.88
2023-01-06T22:15:43.290Z,287.20
2023-01-06T22:17:45.081Z,186.38
2023-01-06T22:19:47.869Z,123.90
2023-01-06T22:21:49.860Z,140.93
2023-01-06T22:23:52.440Z,184.73
2023-01-06T22:25:54.156Z,183.15
2023-01-06T22:27:55.934Z,134.07
2023-01-06T22:29:57.662Z,144.13
2023-01-06T22:32:03.452Z,107.88
2023-01-06T22:34:06.911Z,113.10
2023-01-06T22:36:08.954Z,126.30
2023-01-06T22:38:10.707Z,114.32
2023-01-06T22:40:13.825Z,101.85
2023-01-06T22:42:15.801Z,109.40
2023-01-06T22:44:17.526Z,124.45
2023-01-06T22:46:19.378Z,160.45
2023-01-06T22:48:21.414Z,177.75
2023-01-06T22:50:23.273Z,205.82
2023-01-06T22:52:25.257Z,191.63
2023-01-06T22:54:27.139Z,167.02
2023-01-06T22:56:28.826Z,136.10
2023-01-06T22:58:32.537Z,253.23
2023-01-06T23:00:34.348Z,212.57
2023-01-06T23:02:36.220Z,224.13
2023-01-06T23:04:38.143Z,207.55
2023-01-06T23:06:39.919Z,202.18
2023-01-06T23:08:58.442Z,196.32
2023-01-06T23:11:04.433Z,187.27
2023-01-06T23:13:06.168Z,176.80
2023-01-06T23:15:08.976Z,192.85
2023-01-06T23:17:11.877Z,192.47
2023-01-06T23:19:15.961Z,214.00
2023-01-06T23:21:22.669Z,231.68
2023-01-06T23:23:24.485Z,253.07
2023-01-06T23:25:26.967Z,238.52
2023-01-06T23:27:30.485Z,214.48
2023-01-06T23:29:33.445Z,214.15
2023-01-06T23:31:44.919Z,224.20
2023-01-06T23:33:48.879Z,203.85
2023-01-06T23:35:50.795Z,202.02
2023-01-06T23:37:52.600Z,257.00
2023-01-06T23:39:54.286Z,222.90
2023-01-06T23:41:56.060Z,196.93
2023-01-06T23:43:58.206Z,210.93
2023-01-06T23:46:10.853Z,185.27
2023-01-06T23:48:12.513Z,197.82
2023-01-06T23:50:14.367Z,187.45
2023-01-06T23:52:16.082Z,196.18
2023-01-06T23:54:18.016Z,175.15
2023-01-06T23:56:23.247Z,197.93
2023-01-06T23:58:26.091Z,182.02
